createdAt,value
2018-11-02T00:00:05.241Z,59.52
2018-11-02T00:00:36.833Z,59.49
2018-11-02T00:01:08.424Z,59.53
2018-11-02T00:01:40.012Z,59.65
2018-11-02T00:02:11.604Z,59.67
2018-11-02T00:02:43.214Z,59.92
2018-11-02T00:03:14.818Z,59.79
2018-11-02T00:03:46.443Z,59.94
2018-11-02T00:04:18.038Z,59.66
2018-11-02T00:04:49.629Z,59.77
2018-11-02T00:05:21.210Z,59.94
2018-11-02T00:05:52.818Z,59.93
2018-11-02T00:06:24.457Z,59.96
2018-11-02T00:06:56.030Z,59.81
2018-11-02T00:07:27.632Z,59.88
2018-11-02T00:07:59.252Z,60.15
2018-11-02T00:08:30.918Z,60.16
2018-11-02T00:09:02.502Z,60.12
2018-11-02T00:09:34.096Z,60.24
2018-11-02T00:10:05.675Z,60.30
2018-11-02T00:10:37.302Z,60.27
2018-11-02T00:11:08.885Z,60.26
2018-11-02T00:11:40.466Z,60.30
2018-11-02T00:12:12.084Z,60.37
2018-11-02T00:12:43.716Z,60.47
2018-11-02T00:13:15.336Z,60.54
2018-11-02T00:13:46.971Z,60.48
2018-11-02T00:14:18.581Z,60.64
2018-11-02T00:14:50.202Z,60.56
2018-11-02T00:15:21.814Z,60.48
2018-11-02T00:15:53.401Z,60.57
2018-11-02T00:16:24.986Z,60.66
2018-11-02T00:16:56.585Z,60.50
2018-11-02T00:17:28.179Z,60.63
2018-11-02T00:17:59.837Z,60.62
2018-11-02T00:18:31.450Z,60.52
2018-11-02T00:19:03.056Z,60.63
2018-11-02T00:19:34.671Z,60.62
2018-11-02T00:20:06.277Z,60.70
2018-11-02T00:20:37.865Z,60.84
2018-11-02T00:21:09.468Z,60.80
2018-11-02T00:21:41.076Z,60.88
2018-11-02T00:22:12.701Z,60.88
2018-11-02T00:22:44.285Z,60.91
2018-11-02T00:23:15.899Z,60.94
2018-11-02T00:23:47.498Z,60.81
2018-11-02T00:24:19.084Z,61.06
2018-11-02T00:24:50.701Z,60.92
2018-11-02T00:25:22.287Z,61.19
2018-11-02T00:25:53.909Z,61.33
2018-11-02T00:26:25.504Z,61.66
2018-11-02T00:26:57.082Z,61.53
2018-11-02T00:27:28.662Z,61.63
2018-11-02T00:28:00.279Z,61.46
2018-11-02T00:28:31.880Z,61.50
2018-11-02T00:29:03.476Z,61.65
2018-11-02T00:29:35.102Z,61.61
2018-11-02T00:30:06.694Z,61.73
2018-11-02T00:30:38.404Z,61.78
2018-11-02T00:31:09.998Z,61.82
2018-11-02T00:31:41.626Z,61.76
2018-11-02T00:32:13.241Z,61.90
2018-11-02T00:32:44.830Z,61.84
2018-11-02T00:33:16.819Z,61.95
2018-11-02T00:33:48.416Z,62.02
2018-11-02T00:34:20.022Z,62.07
2018-11-02T00:34:51.615Z,62.00
2018-11-02T00:35:23.242Z,61.95
2018-11-02T00:35:54.850Z,62.07
2018-11-02T00:36:26.440Z,62.05
2018-11-02T00:36:58.033Z,62.08
2018-11-02T00:37:29.618Z,62.15
2018-11-02T00:38:01.255Z,62.20
2018-11-02T00:38:32.856Z,62.38
2018-11-02T00:39:04.455Z,62.30
2018-11-02T00:39:36.054Z,62.30
2018-11-02T00:40:07.656Z,62.45
2018-11-02T00:40:39.270Z,62.49
2018-11-02T00:41:10.851Z,62.55
2018-11-02T00:41:42.452Z,62.42
2018-11-02T00:42:14.070Z,62.49
2018-11-02T00:42:45.663Z,62.45
2018-11-02T00:43:17.249Z,62.43
2018-11-02T00:43:48.891Z,62.60
2018-11-02T00:44:20.448Z,62.62
2018-11-02T00:44:52.039Z,62.61
2018-11-02T00:45:23.626Z,62.61
2018-11-02T00:45:55.215Z,62.57
2018-11-02T00:46:26.812Z,62.59
2018-11-02T00:46:58.442Z,62.56
2018-11-02T00:47:30.042Z,62.54
2018-11-02T00:48:01.630Z,62.57
2018-11-02T00:48:33.251Z,62.72
2018-11-02T00:49:04.840Z,62.68
2018-11-02T00:49:36.432Z,62.77
2018-11-02T00:50:08.024Z,62.70
2018-11-02T00:50:39.625Z,62.73
2018-11-02T00:51:11.224Z,62.86
2018-11-02T00:51:42.855Z,62.96
2018-11-02T00:52:14.448Z,63.08
2018-11-02T00:52:46.057Z,62.95
2018-11-02T00:53:17.699Z,62.85
2018-11-02T00:53:49.330Z,63.47
2018-11-02T00:54:20.919Z,63.81
2018-11-02T00:54:52.565Z,63.31
2018-11-02T00:55:24.165Z,62.95
2018-11-02T00:55:55.771Z,62.51
2018-11-02T00:56:27.355Z,62.88
2018-11-02T00:56:58.968Z,62.57
2018-11-02T00:57:30.554Z,62.56
2018-11-02T00:58:02.154Z,62.41
2018-11-02T00:58:33.772Z,62.28
2018-11-02T00:59:05.359Z,62.26
2018-11-02T00:59:36.973Z,62.36
2018-11-02T01:00:08.582Z,62.46
2018-11-02T01:00:40.182Z,62.51
2018-11-02T01:01:11.785Z,62.49
2018-11-02T01:01:43.376Z,62.57
2018-11-02T01:02:14.980Z,62.68
2018-11-02T01:02:46.600Z,62.65
2018-11-02T01:03:18.196Z,62.72
2018-11-02T01:03:49.827Z,62.64
2018-11-02T01:04:21.419Z,62.69
2018-11-02T01:04:53.016Z,62.75
2018-11-02T01:05:24.625Z,62.79
2018-11-02T01:05:56.230Z,62.75
2018-11-02T01:06:27.838Z,62.81
2018-11-02T01:06:59.441Z,62.76
2018-11-02T01:07:31.031Z,62.81
2018-11-02T01:08:02.659Z,62.76
2018-11-02T01:08:34.294Z,62.86
2018-11-02T01:09:05.889Z,62.77
2018-11-02T01:09:37.485Z,62.76
2018-11-02T01:10:09.091Z,62.82
2018-11-02T01:10:40.692Z,62.89
2018-11-02T01:11:12.301Z,62.86
2018-11-02T01:11:43.929Z,62.82
2018-11-02T01:12:15.533Z,62.80
2018-11-02T01:12:47.127Z,62.81
2018-11-02T01:13:18.703Z,62.84
2018-11-02T01:13:50.342Z,62.77
2018-11-02T01:14:21.935Z,62.85
2018-11-02T01:14:53.524Z,62.84
2018-11-02T01:15:25.110Z,62.86
2018-11-02T01:15:56.683Z,62.98
2018-11-02T01:16:28.288Z,63.05
2018-11-02T01:16:59.896Z,63.05
2018-11-02T01:17:31.491Z,63.33
2018-11-02T01:18:03.104Z,63.24
2018-11-02T01:18:34.724Z,63.30
2018-11-02T01:19:06.340Z,63.17
2018-11-02T01:19:37.952Z,63.18
2018-11-02T01:20:09.552Z,63.25
2018-11-02T01:20:41.148Z,63.21
2018-11-02T01:21:12.755Z,63.26
2018-11-02T01:21:44.334Z,63.29
2018-11-02T01:22:15.940Z,63.33
2018-11-02T01:22:47.549Z,63.35
2018-11-02T01:23:19.144Z,63.37
2018-11-02T01:23:50.769Z,63.39
2018-11-02T01:24:22.374Z,63.43
2018-11-02T01:24:53.977Z,63.49
2018-11-02T01:25:25.571Z,63.49
2018-11-02T01:25:57.164Z,63.59
2018-11-02T01:26:28.755Z,63.65
2018-11-02T01:27:00.352Z,63.54
2018-11-02T01:27:31.958Z,64.09
2018-11-02T01:28:03.610Z,64.02
2018-11-02T01:28:35.217Z,63.83
2018-11-02T01:29:06.870Z,63.80
2018-11-02T01:29:38.453Z,63.72
2018-11-02T01:30:10.047Z,63.72
2018-11-02T01:30:41.648Z,63.67
2018-11-02T01:31:13.253Z,63.71
2018-11-02T01:31:44.865Z,63.69
2018-11-02T01:32:16.490Z,63.75
2018-11-02T01:32:48.095Z,63.70
2018-11-02T01:33:20.306Z,63.66
2018-11-02T01:33:51.918Z,63.67
2018-11-02T01:34:23.554Z,63.70
2018-11-02T01:34:55.160Z,63.67
2018-11-02T01:35:26.761Z,63.66
2018-11-02T01:35:58.357Z,63.72
2018-11-02T01:36:29.960Z,63.75
2018-11-02T01:37:01.558Z,63.69
2018-11-02T01:37:33.160Z,63.81
2018-11-02T01:38:04.785Z,63.80
2018-11-02T01:38:36.384Z,63.75
2018-11-02T01:39:08.134Z,63.72
2018-11-02T01:39:39.728Z,63.80
2018-11-02T01:40:11.348Z,63.79
2018-11-02T01:40:42.960Z,63.83
2018-11-02T01:41:14.569Z,63.85
2018-11-02T01:41:46.161Z,63.91
2018-11-02T01:42:17.754Z,63.87
2018-11-02T01:42:49.347Z,63.82
2018-11-02T01:43:20.952Z,63.82
2018-11-02T01:43:52.547Z,63.79
2018-11-02T01:44:24.163Z,63.79
2018-11-02T01:44:55.751Z,63.81
2018-11-02T01:45:27.342Z,63.83
2018-11-02T01:45:58.940Z,63.87
2018-11-02T01:46:30.549Z,63.86
2018-11-02T01:47:02.153Z,63.79
2018-11-02T01:47:33.748Z,63.82
2018-11-02T01:48:05.349Z,63.79
2018-11-02T01:48:36.935Z,63.82
2018-11-02T01:49:08.552Z,63.79
2018-11-02T01:49:40.168Z,63.90
2018-11-02T01:50:11.804Z,63.93
2018-11-02T01:50:43.412Z,63.79
2018-11-02T01:51:15.003Z,63.73
2018-11-02T01:51:46.595Z,63.64
2018-11-02T01:52:18.202Z,63.74
2018-11-02T01:52:49.801Z,63.81
2018-11-02T01:53:21.392Z,64.12
2018-11-02T01:53:52.994Z,63.66
2018-11-02T01:54:24.631Z,63.62
2018-11-02T01:54:56.233Z,63.55
2018-11-02T01:55:27.824Z,63.55
2018-11-02T01:55:59.419Z,63.43
2018-11-02T01:56:31.007Z,63.22
2018-11-02T01:57:02.619Z,63.25
2018-11-02T01:57:34.216Z,62.82
2018-11-02T01:58:05.811Z,63.06
2018-11-02T01:58:37.414Z,62.88
2018-11-02T01:59:09.020Z,63.10
2018-11-02T01:59:40.642Z,62.94
2018-11-02T02:00:12.236Z,62.88
2018-11-02T02:00:43.849Z,62.78
2018-11-02T02:01:15.459Z,62.74
2018-11-02T02:01:47.074Z,62.51
2018-11-02T02:02:18.677Z,62.58
2018-11-02T02:02:50.280Z,62.73
2018-11-02T02:03:21.880Z,62.64
2018-11-02T02:03:53.477Z,62.55
2018-11-02T02:04:25.099Z,62.53
2018-11-02T02:04:56.692Z,62.61
2018-11-02T02:05:28.314Z,62.62
2018-11-02T02:05:59.918Z,62.51
2018-11-02T02:06:31.512Z,62.56
2018-11-02T02:07:03.109Z,62.43
2018-11-02T02:07:34.694Z,62.37
2018-11-02T02:08:06.294Z,62.42
2018-11-02T02:08:37.884Z,62.47
2018-11-02T02:09:09.480Z,62.23
2018-11-02T02:09:41.094Z,62.50
2018-11-02T02:10:12.678Z,62.23
2018-11-02T02:10:44.271Z,62.52
2018-11-02T02:11:15.898Z,62.35
2018-11-02T02:11:47.496Z,62.27
2018-11-02T02:12:19.127Z,62.34
2018-11-02T02:12:50.742Z,62.33
2018-11-02T02:13:22.526Z,62.20
2018-11-02T02:13:53.972Z,62.46
2018-11-02T02:14:25.602Z,62.58
2018-11-02T02:14:57.218Z,62.55
2018-11-02T02:15:28.824Z,62.61
2018-11-02T02:16:00.429Z,62.61
2018-11-02T02:16:32.018Z,62.46
2018-11-02T02:17:03.617Z,62.57
2018-11-02T02:17:35.246Z,62.55
2018-11-02T02:18:06.877Z,62.53
2018-11-02T02:18:38.461Z,62.43
2018-11-02T02:19:10.060Z,62.58
2018-11-02T02:19:41.669Z,62.69
2018-11-02T02:20:13.267Z,62.68
2018-11-02T02:20:44.859Z,62.46
2018-11-02T02:21:16.456Z,62.74
2018-11-02T02:21:48.057Z,62.88
2018-11-02T02:22:19.676Z,62.82
2018-11-02T02:22:51.277Z,62.91
2018-11-02T02:23:22.898Z,62.94
2018-11-02T02:23:54.482Z,63.05
2018-11-02T02:24:26.104Z,62.91
2018-11-02T02:24:57.709Z,62.94
2018-11-02T02:25:29.318Z,63.21
2018-11-02T02:26:00.912Z,63.25
2018-11-02T02:26:32.499Z,63.25
2018-11-02T02:27:04.096Z,63.24
2018-11-02T02:27:35.710Z,63.33
2018-11-02T02:28:07.411Z,63.50
2018-11-02T02:28:38.998Z,63.53
2018-11-02T02:29:10.578Z,63.52
2018-11-02T02:29:42.196Z,63.64
2018-11-02T02:30:13.798Z,63.54
2018-11-02T02:30:45.405Z,63.69
2018-11-02T02:31:17.005Z,63.86
2018-11-02T02:31:48.600Z,63.81
2018-11-02T02:32:20.194Z,64.00
2018-11-02T02:32:51.801Z,64.11
2018-11-02T02:33:23.723Z,64.01
2018-11-02T02:33:55.328Z,64.16
2018-11-02T02:34:26.968Z,64.07
2018-11-02T02:34:58.574Z,64.13
2018-11-02T02:35:30.169Z,64.09
2018-11-02T02:36:01.797Z,64.10
2018-11-02T02:36:33.434Z,64.17
2018-11-02T02:37:05.052Z,64.47
2018-11-02T02:37:36.628Z,64.49
2018-11-02T02:38:08.231Z,64.84
2018-11-02T02:38:39.823Z,64.61
2018-11-02T02:39:11.423Z,64.62
2018-11-02T02:39:43.038Z,64.62
2018-11-02T02:40:14.666Z,64.67
2018-11-02T02:40:46.267Z,64.72
2018-11-02T02:41:17.957Z,64.62
2018-11-02T02:41:49.541Z,64.80
2018-11-02T02:42:21.128Z,64.79
2018-11-02T02:42:52.717Z,64.87
2018-11-02T02:43:24.313Z,64.77
2018-11-02T02:43:55.901Z,64.81
2018-11-02T02:44:27.544Z,64.77
2018-11-02T02:44:59.159Z,64.99
2018-11-02T02:45:30.756Z,64.88
2018-11-02T02:46:02.369Z,65.06
2018-11-02T02:46:33.953Z,65.00
2018-11-02T02:47:05.566Z,65.04
2018-11-02T02:47:37.179Z,64.97
2018-11-02T02:48:08.784Z,64.82
2018-11-02T02:48:40.374Z,64.94
2018-11-02T02:49:11.976Z,65.16
2018-11-02T02:49:43.618Z,65.20
2018-11-02T02:50:15.216Z,65.09
2018-11-02T02:50:46.829Z,65.13
2018-11-02T02:51:18.418Z,64.93
2018-11-02T02:51:50.025Z,65.18
2018-11-02T02:52:21.646Z,65.22
2018-11-02T02:52:53.270Z,65.23
2018-11-02T02:53:24.873Z,65.11
2018-11-02T02:53:56.450Z,65.09
2018-11-02T02:54:28.065Z,65.20
2018-11-02T02:54:59.706Z,65.39
2018-11-02T02:55:31.347Z,65.28
2018-11-02T02:56:02.944Z,65.32
2018-11-02T02:56:34.570Z,65.40
2018-11-02T02:57:06.175Z,65.50
2018-11-02T02:57:37.768Z,65.36
2018-11-02T02:58:09.371Z,65.47
2018-11-02T02:58:40.973Z,65.41
2018-11-02T02:59:12.588Z,65.38
2018-11-02T02:59:44.239Z,65.40
2018-11-02T03:00:15.838Z,65.60
2018-11-02T03:00:47.443Z,65.48
2018-11-02T03:01:19.054Z,65.68
2018-11-02T03:01:50.651Z,66.02
2018-11-02T03:02:22.243Z,65.81
2018-11-02T03:02:53.825Z,65.54
2018-11-02T03:03:25.426Z,65.47
2018-11-02T03:03:57.033Z,65.49
2018-11-02T03:04:28.650Z,65.46
2018-11-02T03:05:00.294Z,65.25
2018-11-02T03:05:31.919Z,65.56
2018-11-02T03:06:03.534Z,65.43
2018-11-02T03:06:35.140Z,65.38
2018-11-02T03:07:06.732Z,65.42
2018-11-02T03:07:38.326Z,65.55
2018-11-02T03:08:09.945Z,65.89
2018-11-02T03:08:41.544Z,65.70
2018-11-02T03:09:13.150Z,65.59
2018-11-02T03:09:44.799Z,65.53
2018-11-02T03:10:16.425Z,65.52
2018-11-02T03:10:48.158Z,65.47
2018-11-02T03:11:19.984Z,65.60
2018-11-02T03:11:51.637Z,65.55
2018-11-02T03:12:23.242Z,65.47
2018-11-02T03:12:54.841Z,65.34
2018-11-02T03:13:26.431Z,65.43
2018-11-02T03:13:58.037Z,65.52
2018-11-02T03:14:29.635Z,65.43
2018-11-02T03:15:01.260Z,65.46
2018-11-02T03:15:32.894Z,65.47
2018-11-02T03:16:04.516Z,65.45
2018-11-02T03:16:36.133Z,65.40
2018-11-02T03:17:08.182Z,65.45
2018-11-02T03:17:39.908Z,65.32
2018-11-02T03:18:11.538Z,65.44
2018-11-02T03:18:43.272Z,65.36
2018-11-02T03:19:14.738Z,65.31
2018-11-02T03:19:46.332Z,65.38
2018-11-02T03:20:18.011Z,65.31
2018-11-02T03:20:49.600Z,65.27
2018-11-02T03:21:21.191Z,65.28
2018-11-02T03:21:52.809Z,65.34
2018-11-02T03:22:24.438Z,65.13
2018-11-02T03:22:56.005Z,65.26
2018-11-02T03:23:27.603Z,65.20
2018-11-02T03:23:59.200Z,65.25
2018-11-02T03:24:30.791Z,65.22
2018-11-02T03:25:02.409Z,65.25
2018-11-02T03:25:34.013Z,65.18
2018-11-02T03:26:05.602Z,65.19
2018-11-02T03:26:37.230Z,65.13
2018-11-02T03:27:08.838Z,65.25
2018-11-02T03:27:40.431Z,65.17
2018-11-02T03:28:12.046Z,65.13
2018-11-02T03:28:43.645Z,65.15
2018-11-02T03:29:15.252Z,65.09
2018-11-02T03:29:46.869Z,65.20
2018-11-02T03:30:18.528Z,65.15
2018-11-02T03:30:50.146Z,65.17
2018-11-02T03:31:21.754Z,65.17
2018-11-02T03:31:53.363Z,65.14
2018-11-02T03:32:25.031Z,65.07
2018-11-02T03:32:56.706Z,65.04
2018-11-02T03:33:28.330Z,65.09
2018-11-02T03:33:59.947Z,64.99
2018-11-02T03:34:31.538Z,65.05
2018-11-02T03:35:03.162Z,65.06
2018-11-02T03:35:34.789Z,65.17
2018-11-02T03:36:06.408Z,65.08
2018-11-02T03:36:38.043Z,65.07
2018-11-02T03:37:09.655Z,65.03
2018-11-02T03:37:41.269Z,65.07
2018-11-02T03:38:12.867Z,65.07
2018-11-02T03:38:44.446Z,65.07
2018-11-02T03:39:16.045Z,65.10
2018-11-02T03:39:47.627Z,64.99
2018-11-02T03:40:19.267Z,64.91
2018-11-02T03:40:50.885Z,64.91
2018-11-02T03:41:22.510Z,64.97
2018-11-02T03:41:54.096Z,64.91
2018-11-02T03:42:25.693Z,64.91
2018-11-02T03:42:57.302Z,64.92
2018-11-02T03:43:28.918Z,64.92
2018-11-02T03:44:00.506Z,64.83
2018-11-02T03:44:32.107Z,64.93
2018-11-02T03:45:03.718Z,64.85
2018-11-02T03:45:35.325Z,64.83
2018-11-02T03:46:06.916Z,64.84
2018-11-02T03:46:38.528Z,64.86
2018-11-02T03:47:10.134Z,64.70
2018-11-02T03:47:41.747Z,64.69
2018-11-02T03:48:13.357Z,64.56
2018-11-02T03:48:44.960Z,64.56
2018-11-02T03:49:16.574Z,64.45
2018-11-02T03:49:48.268Z,64.89
2018-11-02T03:50:19.893Z,64.51
2018-11-02T03:50:51.530Z,64.41
2018-11-02T03:51:23.109Z,64.45
2018-11-02T03:51:54.713Z,64.34
2018-11-02T03:52:26.308Z,64.15
2018-11-02T03:52:57.907Z,64.16
2018-11-02T03:53:29.865Z,63.85
2018-11-02T03:54:01.897Z,63.91
2018-11-02T03:54:33.495Z,63.92
2018-11-02T03:55:05.155Z,63.88
2018-11-02T03:55:36.756Z,63.82
2018-11-02T03:56:08.352Z,63.79
2018-11-02T03:56:39.998Z,63.49
2018-11-02T03:57:11.560Z,63.61
2018-11-02T03:57:43.177Z,63.61
2018-11-02T03:58:14.787Z,63.38
2018-11-02T03:58:46.396Z,63.51
2018-11-02T03:59:17.995Z,63.61
2018-11-02T03:59:49.592Z,63.66
2018-11-02T04:00:21.237Z,63.79
2018-11-02T04:00:52.846Z,63.36
2018-11-02T04:01:24.467Z,63.44
2018-11-02T04:01:56.082Z,63.30
2018-11-02T04:02:27.680Z,63.41
2018-11-02T04:02:59.262Z,63.38
2018-11-02T04:03:30.857Z,63.16
2018-11-02T04:04:02.465Z,63.44
2018-11-02T04:04:34.074Z,63.33
2018-11-02T04:05:05.672Z,63.43
2018-11-02T04:05:37.309Z,63.21
2018-11-02T04:06:08.923Z,63.18
2018-11-02T04:06:40.524Z,63.18
2018-11-02T04:07:12.116Z,63.25
2018-11-02T04:07:43.736Z,63.50
2018-11-02T04:08:15.358Z,63.09
2018-11-02T04:08:46.969Z,63.41
2018-11-02T04:09:18.586Z,63.17
2018-11-02T04:09:50.181Z,63.41
2018-11-02T04:10:21.812Z,63.42
2018-11-02T04:10:53.390Z,63.42
2018-11-02T04:11:24.978Z,63.28
2018-11-02T04:11:56.565Z,63.36
2018-11-02T04:12:28.169Z,63.33
2018-11-02T04:12:59.750Z,63.46
2018-11-02T04:13:31.348Z,63.30
2018-11-02T04:14:02.970Z,63.46
2018-11-02T04:14:34.574Z,63.33
2018-11-02T04:15:06.182Z,63.19
2018-11-02T04:15:37.814Z,63.28
2018-11-02T04:16:09.394Z,63.17
2018-11-02T04:16:40.984Z,63.17
2018-11-02T04:17:12.588Z,63.41
2018-11-02T04:17:44.211Z,63.84
2018-11-02T04:18:15.811Z,63.88
2018-11-02T04:18:47.460Z,63.46
2018-11-02T04:19:19.050Z,63.50
2018-11-02T04:19:50.634Z,63.76
2018-11-02T04:20:22.267Z,63.67
2018-11-02T04:20:53.864Z,63.85
2018-11-02T04:21:25.473Z,63.74
2018-11-02T04:21:57.088Z,64.21
2018-11-02T04:22:28.688Z,64.07
2018-11-02T04:23:00.303Z,64.07
2018-11-02T04:23:31.917Z,64.14
2018-11-02T04:24:03.516Z,64.20
2018-11-02T04:24:35.120Z,64.04
2018-11-02T04:25:06.718Z,64.15
2018-11-02T04:25:38.327Z,64.05
2018-11-02T04:26:09.910Z,64.14
2018-11-02T04:26:41.511Z,64.15
2018-11-02T04:27:13.112Z,64.25
2018-11-02T04:27:44.698Z,64.19
2018-11-02T04:28:16.274Z,64.19
2018-11-02T04:28:47.904Z,64.28
2018-11-02T04:29:19.501Z,64.38
2018-11-02T04:29:51.120Z,64.22
2018-11-02T04:30:22.725Z,64.27
2018-11-02T04:30:54.420Z,64.22
2018-11-02T04:31:25.969Z,64.33
2018-11-02T04:31:57.561Z,64.36
2018-11-02T04:32:29.156Z,64.35
2018-11-02T04:33:00.747Z,64.38
2018-11-02T04:33:32.353Z,64.46
2018-11-02T04:34:03.956Z,64.51
2018-11-02T04:34:35.568Z,64.57
2018-11-02T04:35:07.167Z,64.52
2018-11-02T04:35:38.764Z,64.56
2018-11-02T04:36:10.389Z,64.57
2018-11-02T04:36:41.983Z,64.56
2018-11-02T04:37:13.579Z,64.50
2018-11-02T04:37:45.171Z,64.61
2018-11-02T04:38:16.783Z,64.65
2018-11-02T04:38:48.394Z,64.75
2018-11-02T04:39:19.976Z,64.70
2018-11-02T04:39:51.592Z,64.78
2018-11-02T04:40:23.210Z,64.79
2018-11-02T04:40:54.842Z,64.84
2018-11-02T04:41:26.466Z,64.73
2018-11-02T04:41:58.068Z,64.79
2018-11-02T04:42:29.669Z,64.81
2018-11-02T04:43:01.268Z,64.82
2018-11-02T04:43:32.868Z,64.85
2018-11-02T04:44:04.478Z,64.87
2018-11-02T04:44:36.071Z,64.91
2018-11-02T04:45:07.663Z,64.90
2018-11-02T04:45:39.247Z,64.86
2018-11-02T04:46:10.882Z,65.16
2018-11-02T04:46:42.526Z,65.15
2018-11-02T04:47:14.117Z,65.11
2018-11-02T04:47:45.712Z,65.06
2018-11-02T04:48:17.300Z,65.13
2018-11-02T04:48:48.905Z,65.21
2018-11-02T04:49:20.500Z,65.21
2018-11-02T04:49:52.088Z,65.14
2018-11-02T04:50:23.680Z,65.21
2018-11-02T04:50:55.496Z,65.06
2018-11-02T04:51:26.936Z,65.13
2018-11-02T04:51:58.518Z,65.07
2018-11-02T04:52:30.112Z,65.09
2018-11-02T04:53:01.726Z,65.16
2018-11-02T04:53:33.349Z,65.20
2018-11-02T04:54:04.948Z,65.17
2018-11-02T04:54:36.556Z,65.16
2018-11-02T04:55:08.152Z,65.11
2018-11-02T04:55:39.747Z,65.11
2018-11-02T04:56:11.397Z,65.23
2018-11-02T04:56:42.993Z,65.20
2018-11-02T04:57:14.574Z,65.24
2018-11-02T04:57:46.175Z,65.23
2018-11-02T04:58:17.788Z,65.26
2018-11-02T04:58:49.371Z,65.22
2018-11-02T04:59:20.985Z,65.18
2018-11-02T04:59:52.579Z,65.26
2018-11-02T05:00:24.185Z,65.30
2018-11-02T05:00:55.804Z,65.31
2018-11-02T05:01:27.410Z,65.33
2018-11-02T05:01:59.030Z,65.32
2018-11-02T05:02:30.661Z,65.25
2018-11-02T05:03:02.267Z,65.25
2018-11-02T05:03:33.877Z,65.32
2018-11-02T05:04:05.477Z,65.19
2018-11-02T05:04:37.082Z,65.27
2018-11-02T05:05:08.678Z,65.19
2018-11-02T05:05:40.276Z,65.15
2018-11-02T05:06:11.878Z,65.23
2018-11-02T05:06:43.518Z,65.23
2018-11-02T05:07:15.117Z,65.23
2018-11-02T05:07:46.715Z,65.28
2018-11-02T05:08:18.346Z,65.27
2018-11-02T05:08:49.968Z,65.21
2018-11-02T05:09:21.563Z,65.29
2018-11-02T05:09:53.232Z,65.24
2018-11-02T05:10:24.809Z,65.28
2018-11-02T05:10:56.390Z,65.28
2018-11-02T05:11:28.095Z,65.30
2018-11-02T05:11:59.655Z,65.26
2018-11-02T05:12:31.262Z,65.35
2018-11-02T05:13:02.861Z,65.52
2018-11-02T05:13:34.455Z,65.45
2018-11-02T05:14:06.054Z,65.49
2018-11-02T05:14:37.651Z,65.32
2018-11-02T05:15:09.234Z,65.21
2018-11-02T05:15:40.838Z,65.27
2018-11-02T05:16:12.427Z,65.51
2018-11-02T05:16:44.070Z,65.42
2018-11-02T05:17:15.654Z,65.23
2018-11-02T05:17:47.248Z,65.37
2018-11-02T05:18:18.853Z,65.31
2018-11-02T05:18:50.439Z,65.38
2018-11-02T05:19:22.022Z,65.43
2018-11-02T05:19:53.626Z,65.33
2018-11-02T05:20:25.225Z,65.54
2018-11-02T05:20:56.871Z,65.43
2018-11-02T05:21:28.490Z,65.49
2018-11-02T05:22:00.068Z,65.46
2018-11-02T05:22:31.647Z,65.69
2018-11-02T05:23:03.282Z,65.67
2018-11-02T05:23:34.875Z,65.51
2018-11-02T05:24:06.481Z,65.47
2018-11-02T05:24:38.072Z,65.46
2018-11-02T05:25:09.650Z,65.26
2018-11-02T05:25:41.237Z,65.79
2018-11-02T05:26:12.866Z,65.89
2018-11-02T05:26:44.492Z,65.81
2018-11-02T05:27:16.098Z,65.57
2018-11-02T05:27:47.711Z,64.51
2018-11-02T05:28:19.307Z,64.76
2018-11-02T05:28:50.914Z,64.93
2018-11-02T05:29:22.526Z,64.42
2018-11-02T05:29:54.123Z,64.40
2018-11-02T05:30:25.738Z,64.58
2018-11-02T05:30:57.342Z,64.80
2018-11-02T05:31:28.959Z,64.73
2018-11-02T05:32:00.584Z,64.83
2018-11-02T05:32:32.195Z,64.82
2018-11-02T05:33:03.816Z,64.85
2018-11-02T05:33:35.496Z,64.89
2018-11-02T05:34:07.180Z,64.96
2018-11-02T05:34:38.881Z,64.95
2018-11-02T05:35:10.493Z,64.95
2018-11-02T05:35:42.101Z,65.04
2018-11-02T05:36:13.742Z,65.02
2018-11-02T05:36:45.436Z,65.14
2018-11-02T05:37:17.151Z,65.24
2018-11-02T05:37:48.804Z,65.14
2018-11-02T05:38:20.410Z,65.27
2018-11-02T05:38:52.017Z,65.32
2018-11-02T05:39:23.712Z,65.32
2018-11-02T05:39:55.249Z,65.15
2018-11-02T05:40:26.839Z,65.12
2018-11-02T05:40:58.437Z,65.04
2018-11-02T05:41:30.046Z,65.07
2018-11-02T05:42:01.673Z,65.01
2018-11-02T05:42:33.267Z,65.08
2018-11-02T05:43:04.863Z,65.08
2018-11-02T05:43:36.540Z,64.99
2018-11-02T05:44:08.167Z,64.64
2018-11-02T05:44:39.760Z,64.69
2018-11-02T05:45:11.352Z,64.63
2018-11-02T05:45:42.938Z,64.53
2018-11-02T05:46:14.543Z,64.51
2018-11-02T05:46:46.164Z,64.49
2018-11-02T05:47:17.770Z,64.50
2018-11-02T05:47:49.398Z,64.54
2018-11-02T05:48:20.991Z,64.56
2018-11-02T05:48:52.576Z,64.56
2018-11-02T05:49:24.167Z,64.43
2018-11-02T05:49:55.795Z,64.36
2018-11-02T05:50:27.367Z,64.24
2018-11-02T05:50:58.961Z,64.19
2018-11-02T05:51:30.564Z,64.11
2018-11-02T05:52:02.188Z,63.94
2018-11-02T05:52:33.802Z,63.82
2018-11-02T05:53:05.418Z,63.94
2018-11-02T05:53:37.020Z,64.03
2018-11-02T05:54:08.711Z,63.95
2018-11-02T05:54:40.296Z,64.18
2018-11-02T05:55:11.925Z,63.45
2018-11-02T05:55:43.541Z,63.92
2018-11-02T05:56:15.146Z,63.81
2018-11-02T05:56:46.778Z,63.84
2018-11-02T05:57:18.372Z,63.98
2018-11-02T05:57:49.969Z,63.73
2018-11-02T05:58:21.572Z,64.03
2018-11-02T05:58:53.177Z,64.00
2018-11-02T05:59:24.763Z,63.88
2018-11-02T05:59:56.370Z,63.77
2018-11-02T06:00:27.979Z,63.77
2018-11-02T06:00:59.572Z,63.69
2018-11-02T06:01:31.322Z,63.72
2018-11-02T06:02:02.812Z,63.66
2018-11-02T06:02:34.442Z,63.68
2018-11-02T06:03:06.050Z,63.63
2018-11-02T06:03:37.662Z,63.74
2018-11-02T06:04:09.274Z,63.73
2018-11-02T06:04:40.885Z,63.51
2018-11-02T06:05:12.508Z,63.28
2018-11-02T06:05:44.113Z,63.37
2018-11-02T06:06:15.734Z,63.59
2018-11-02T06:06:47.345Z,63.27
2018-11-02T06:07:18.939Z,63.44
2018-11-02T06:07:50.603Z,63.69
2018-11-02T06:08:22.144Z,63.82
2018-11-02T06:08:53.730Z,63.72
2018-11-02T06:09:25.334Z,63.58
2018-11-02T06:09:56.946Z,63.72
2018-11-02T06:10:28.541Z,63.67
2018-11-02T06:11:00.162Z,63.62
2018-11-02T06:11:31.760Z,63.63
2018-11-02T06:12:03.369Z,63.60
2018-11-02T06:12:34.964Z,63.56
2018-11-02T06:13:06.576Z,63.60
2018-11-02T06:13:38.182Z,63.78
2018-11-02T06:14:09.798Z,63.59
2018-11-02T06:14:41.764Z,63.66
2018-11-02T06:15:13.404Z,63.73
2018-11-02T06:15:45.005Z,63.68
2018-11-02T06:16:16.621Z,63.75
2018-11-02T06:16:48.288Z,63.70
2018-11-02T06:17:19.881Z,63.82
2018-11-02T06:17:51.468Z,63.87
2018-11-02T06:18:23.083Z,63.87
2018-11-02T06:18:54.675Z,63.85
2018-11-02T06:19:26.291Z,63.82
2018-11-02T06:19:57.905Z,63.83
2018-11-02T06:20:29.567Z,63.84
2018-11-02T06:21:01.137Z,63.91
2018-11-02T06:21:32.753Z,63.99
2018-11-02T06:22:04.372Z,64.00
2018-11-02T06:22:35.996Z,64.11
2018-11-02T06:23:07.582Z,64.13
2018-11-02T06:23:39.194Z,64.00
2018-11-02T06:24:10.841Z,64.13
2018-11-02T06:24:42.408Z,64.16
2018-11-02T06:25:14.012Z,64.15
2018-11-02T06:25:45.637Z,64.15
2018-11-02T06:26:17.255Z,64.22
2018-11-02T06:26:48.862Z,64.17
2018-11-02T06:27:20.508Z,64.34
2018-11-02T06:27:52.117Z,64.28
2018-11-02T06:28:23.723Z,64.27
2018-11-02T06:28:55.334Z,64.41
2018-11-02T06:29:26.928Z,64.41
2018-11-02T06:29:58.534Z,64.34
2018-11-02T06:30:30.215Z,64.37
2018-11-02T06:31:01.784Z,64.47
2018-11-02T06:31:33.632Z,64.40
2018-11-02T06:32:05.358Z,64.46
2018-11-02T06:32:36.998Z,64.45
2018-11-02T06:33:08.575Z,64.55
2018-11-02T06:33:40.522Z,64.46
2018-11-02T06:34:12.128Z,64.56
2018-11-02T06:34:43.720Z,64.49
2018-11-02T06:35:15.315Z,64.58
2018-11-02T06:35:46.914Z,64.58
2018-11-02T06:36:18.494Z,64.56
2018-11-02T06:36:50.104Z,64.53
2018-11-02T06:37:21.743Z,64.61
2018-11-02T06:37:53.340Z,64.59
2018-11-02T06:38:24.960Z,64.63
2018-11-02T06:38:56.611Z,64.76
2018-11-02T06:39:28.174Z,64.77
2018-11-02T06:39:59.806Z,64.88
2018-11-02T06:40:31.389Z,64.90
2018-11-02T06:41:02.994Z,64.86
2018-11-02T06:41:34.597Z,64.92
2018-11-02T06:42:06.219Z,64.88
2018-11-02T06:42:37.807Z,64.95
2018-11-02T06:43:09.418Z,64.86
2018-11-02T06:43:41.017Z,64.98
2018-11-02T06:44:12.639Z,64.97
2018-11-02T06:44:44.248Z,64.93
2018-11-02T06:45:15.839Z,65.10
2018-11-02T06:45:47.441Z,65.07
2018-11-02T06:46:19.043Z,65.11
2018-11-02T06:46:50.653Z,65.20